sensor_id;sensor_type;location;lat;lon;timestamp;pressure;altitude;pressure_sealevel;temperature;humidity
73429;BME280;61643;49.564;17.412;2022-11-15T00:00:48;98557.63;;;3.46;94.13
73429;BME280;61643;49.564;17.412;2022-11-15T00:03:17;98551.84;;;3.30;94.86
73429;BME280;61643;49.564;17.412;2022-11-15T00:05:43;98545.31;;;3.32;95.88
73429;BME280;61643;49.564;17.412;2022-11-15T00:08:09;98549.19;;;3.36;94.69
73429;BME280;61643;49.564;17.412;2022-11-15T00:10:34;98545.91;;;3.41;94.81
73429;BME280;61643;49.564;17.412;2022-11-15T00:13:00;98542.66;;;3.39;94.20
73429;BME280;61643;49.564;17.412;2022-11-15T00:15:29;98539.78;;;3.40;94.56
73429;BME280;61643;49.564;17.412;2022-11-15T00:17:54;98533.41;;;3.15;95.36
73429;BME280;61643;49.564;17.412;2022-11-15T00:20:19;98526.47;;;3.27;94.79
73429;BME280;61643;49.564;17.412;2022-11-15T00:22:44;98535.06;;;3.29;94.79
73429;BME280;61643;49.564;17.412;2022-11-15T00:25:10;98529.53;;;3.18;94.73
73429;BME280;61643;49.564;17.412;2022-11-15T00:27:35;98526.06;;;3.30;94.63
73429;BME280;61643;49.564;17.412;2022-11-15T00:30:01;98526.41;;;3.08;95.40
73429;BME280;61643;49.564;17.412;2022-11-15T00:32:26;98521.56;;;3.24;94.72
73429;BME280;61643;49.564;17.412;2022-11-15T00:34:51;98528.31;;;3.33;94.80
73429;BME280;61643;49.564;17.412;2022-11-15T00:37:17;98522.56;;;3.23;95.05
73429;BME280;61643;49.564;17.412;2022-11-15T00:39:42;98533.63;;;3.33;94.92
73429;BME280;61643;49.564;17.412;2022-11-15T00:42:07;98530.97;;;3.33;94.57
73429;BME280;61643;49.564;17.412;2022-11-15T00:44:33;98519.72;;;3.25;94.39
73429;BME280;61643;49.564;17.412;2022-11-15T00:46:58;98521.97;;;3.28;94.70
73429;BME280;61643;49.564;17.412;2022-11-15T00:49:23;98516.44;;;3.29;94.49
73429;BME280;61643;49.564;17.412;2022-11-15T00:51:49;98517.44;;;3.15;95.23
73429;BME280;61643;49.564;17.412;2022-11-15T00:54:14;98514.78;;;3.15;95.56
73429;BME280;61643;49.564;17.412;2022-11-15T00:56:39;98511.75;;;3.18;95.96
73429;BME280;61643;49.564;17.412;2022-11-15T00:59:05;98503.53;;;3.20;95.51
73429;BME280;61643;49.564;17.412;2022-11-15T01:01:30;98503.75;;;3.25;94.98
73429;BME280;61643;49.564;17.412;2022-11-15T01:03:55;98514.00;;;3.34;94.60
73429;BME280;61643;49.564;17.412;2022-11-15T01:06:21;98518.44;;;3.08;95.23
73429;BME280;61643;49.564;17.412;2022-11-15T01:08:46;98502.06;;;2.97;96.24
73429;BME280;61643;49.564;17.412;2022-11-15T01:11:12;98511.09;;;3.16;95.31
73429;BME280;61643;49.564;17.412;2022-11-15T01:13:38;98509.50;;;3.22;97.67
73429;BME280;61643;49.564;17.412;2022-11-15T01:16:13;98509.09;;;3.18;96.76
73429;BME280;61643;49.564;17.412;2022-11-15T01:18:39;98509.09;;;3.25;97.06
73429;BME280;61643;49.564;17.412;2022-11-15T01:21:09;98512.16;;;3.28;97.00
73429;BME280;61643;49.564;17.412;2022-11-15T01:23:36;98512.56;;;3.38;95.88
73429;BME280;61643;49.564;17.412;2022-11-15T01:26:03;98510.72;;;3.32;96.42
73429;BME280;61643;49.564;17.412;2022-11-15T01:28:33;98506.44;;;3.31;96.53
73429;BME280;61643;49.564;17.412;2022-11-15T01:31:05;98506.00;;;3.34;96.08
73429;BME280;61643;49.564;17.412;2022-11-15T01:33:30;98498.22;;;3.26;96.70
73429;BME280;61643;49.564;17.412;2022-11-15T01:35:56;98489.22;;;3.27;97.06
73429;BME280;61643;49.564;17.412;2022-11-15T01:38:22;98495.56;;;3.33;96.31
73429;BME280;61643;49.564;17.412;2022-11-15T01:40:48;98490.25;;;3.33;96.54
73429;BME280;61643;49.564;17.412;2022-11-15T01:43:24;98489.22;;;3.27;96.42
73429;BME280;61643;49.564;17.412;2022-11-15T01:45:59;98478.19;;;3.30;96.11
73429;BME280;61643;49.564;17.412;2022-11-15T01:48:31;98481.66;;;3.18;96.58
73429;BME280;61643;49.564;17.412;2022-11-15T01:50:58;98476.53;;;3.16;96.89
73429;BME280;61643;49.564;17.412;2022-11-15T01:53:25;98470.19;;;3.11;96.48
73429;BME280;61643;49.564;17.412;2022-11-15T01:55:52;98468.97;;;3.20;95.79
73429;BME280;61643;49.564;17.412;2022-11-15T01:58:17;98469.19;;;3.18;95.60
73429;BME280;61643;49.564;17.412;2022-11-15T02:00:43;98464.47;;;3.07;95.46
73429;BME280;61643;49.564;17.412;2022-11-15T02:03:09;98461.59;;;3.02;96.08
73429;BME280;61643;49.564;17.412;2022-11-15T02:05:36;98464.84;;;3.04;95.83
73429;BME280;61643;49.564;17.412;2022-11-15T02:08:01;98467.91;;;3.01;95.35
73429;BME280;61643;49.564;17.412;2022-11-15T02:10:27;98459.53;;;2.97;96.44
73429;BME280;61643;49.564;17.412;2022-11-15T02:12:53;98450.72;;;2.77;96.17
73429;BME280;61643;49.564;17.412;2022-11-15T02:15:20;98457.69;;;2.85;95.52
73429;BME280;61643;49.564;17.412;2022-11-15T02:31:28;98433.13;;;2.83;95.09
73429;BME280;61643;49.564;17.412;2022-11-15T02:36:49;98453.97;;;2.79;95.21
73429;BME280;61643;49.564;17.412;2022-11-15T02:42:07;98446.41;;;2.76;96.23
73429;BME280;61643;49.564;17.412;2022-11-15T02:44:57;98448.88;;;2.78;96.22
73429;BME280;61643;49.564;17.412;2022-11-15T02:47:27;98456.22;;;2.76;96.67
73429;BME280;61643;49.564;17.412;2022-11-15T02:49:59;98447.41;;;2.69;98.15
73429;BME280;61643;49.564;17.412;2022-11-15T02:52:25;98439.44;;;2.62;98.09
73429;BME280;61643;49.564;17.412;2022-11-15T02:54:54;98441.50;;;2.73;97.75
73429;BME280;61643;49.564;17.412;2022-11-15T03:00:10;98428.44;;;2.91;98.43
73429;BME280;61643;49.564;17.412;2022-11-15T03:10:56;98424.56;;;2.94;98.91
73429;BME280;61643;49.564;17.412;2022-11-15T03:18:59;98422.28;;;2.78;98.32
73429;BME280;61643;49.564;17.412;2022-11-15T03:21:28;98418.00;;;2.77;97.60
73429;BME280;61643;49.564;17.412;2022-11-15T03:23:55;98420.03;;;2.75;97.61
73429;BME280;61643;49.564;17.412;2022-11-15T03:26:23;98421.47;;;2.71;98.13
73429;BME280;61643;49.564;17.412;2022-11-15T03:28:53;98415.94;;;2.72;97.97
73429;BME280;61643;49.564;17.412;2022-11-15T03:31:21;98410.81;;;2.64;98.30
73429;BME280;61643;49.564;17.412;2022-11-15T03:34:09;98407.97;;;2.79;97.51
73429;BME280;61643;49.564;17.412;2022-11-15T03:36:37;98400.41;;;2.76;97.18
73429;BME280;61643;49.564;17.412;2022-11-15T03:39:06;98406.94;;;2.80;97.17
73429;BME280;61643;49.564;17.412;2022-11-15T03:41:41;98403.47;;;2.73;96.96
73429;BME280;61643;49.564;17.412;2022-11-15T03:44:14;98407.53;;;2.69;97.36
73429;BME280;61643;49.564;17.412;2022-11-15T03:46:47;98399.16;;;2.72;97.33
73429;BME280;61643;49.564;17.412;2022-11-15T03:49:20;98393.41;;;2.55;96.82
73429;BME280;61643;49.564;17.412;2022-11-15T03:51:47;98393.66;;;2.60;97.32
73429;BME280;61643;49.564;17.412;2022-11-15T03:54:13;98391.78;;;2.61;97.49
73429;BME280;61643;49.564;17.412;2022-11-15T03:56:38;98396.09;;;2.68;96.77
73429;BME280;61643;49.564;17.412;2022-11-15T03:59:04;98401.41;;;2.62;96.36
73429;BME280;61643;49.564;17.412;2022-11-15T04:01:29;98397.50;;;2.64;95.88
73429;BME280;61643;49.564;17.412;2022-11-15T04:03:54;98385.47;;;2.62;95.80
73429;BME280;61643;49.564;17.412;2022-11-15T04:06:20;98387.28;;;2.55;96.23
73429;BME280;61643;49.564;17.412;2022-11-15T04:08:45;98389.66;;;2.23;96.81
73429;BME280;61643;49.564;17.412;2022-11-15T04:11:10;98390.91;;;2.27;98.31
73429;BME280;61643;49.564;17.412;2022-11-15T04:13:36;98379.69;;;2.38;97.34
73429;BME280;61643;49.564;17.412;2022-11-15T04:16:01;98371.75;;;2.45;96.29
73429;BME280;61643;49.564;17.412;2022-11-15T04:18:26;98381.31;;;2.46;96.35
73429;BME280;61643;49.564;17.412;2022-11-15T04:20:52;98376.66;;;2.48;95.82
73429;BME280;61643;49.564;17.412;2022-11-15T04:23:36;98386.84;;;2.44;95.00
73429;BME280;61643;49.564;17.412;2022-11-15T04:26:22;98375.41;;;2.37;95.06
73429;BME280;61643;49.564;17.412;2022-11-15T04:28:48;98372.69;;;2.24;95.06
73429;BME280;61643;49.564;17.412;2022-11-15T04:31:32;98357.13;;;2.08;95.68
73429;BME280;61643;49.564;17.412;2022-11-15T04:33:57;98363.72;;;2.32;94.71
73429;BME280;61643;49.564;17.412;2022-11-15T04:36:23;98352.44;;;2.10;95.39
73429;BME280;61643;49.564;17.412;2022-11-15T04:39:07;98350.63;;;2.17;95.23
73429;BME280;61643;49.564;17.412;2022-11-15T04:41:32;98355.56;;;2.33;95.00
73429;BME280;61643;49.564;17.412;2022-11-15T04:43:57;98358.63;;;2.24;94.39
73429;BME280;61643;49.564;17.412;2022-11-15T04:46:23;98354.75;;;2.33;94.63
73429;BME280;61643;49.564;17.412;2022-11-15T04:48:49;98357.81;;;2.23;94.74
73429;BME280;61643;49.564;17.412;2022-11-15T04:51:15;98359.63;;;2.16;94.83
73429;BME280;61643;49.564;17.412;2022-11-15T04:53:41;98360.03;;;2.13;94.93
73429;BME280;61643;49.564;17.412;2022-11-15T04:56:06;98360.03;;;2.13;94.65
73429;BME280;61643;49.564;17.412;2022-11-15T04:58:32;98355.91;;;2.11;94.85
73429;BME280;61643;49.564;17.412;2022-11-15T05:00:58;98362.47;;;2.15;95.25
73429;BME280;61643;49.564;17.412;2022-11-15T05:03:23;98361.22;;;2.11;95.23
73429;BME280;61643;49.564;17.412;2022-11-15T05:06:07;98356.72;;;2.11;95.55
73429;BME280;61643;49.564;17.412;2022-11-15T05:08:33;98361.00;;;2.06;95.28
73429;BME280;61643;49.564;17.412;2022-11-15T05:10:58;98357.13;;;2.08;96.31
73429;BME280;61643;49.564;17.412;2022-11-15T05:13:23;98355.72;;;2.12;97.29
73429;BME280;61643;49.564;17.412;2022-11-15T05:15:49;98346.09;;;2.11;97.27
73429;BME280;61643;49.564;17.412;2022-11-15T05:18:14;98348.00;;;2.24;99.39
73429;BME280;61643;49.564;17.412;2022-11-15T05:20:39;98342.13;;;2.41;99.34
73429;BME280;61643;49.564;17.412;2022-11-15T05:23:05;98344.38;;;2.51;98.23
73429;BME280;61643;49.564;17.412;2022-11-15T05:25:30;98345.59;;;2.62;97.75
73429;BME280;61643;49.564;17.412;2022-11-15T05:27:56;98341.13;;;2.62;97.34
73429;BME280;61643;49.564;17.412;2022-11-15T05:30:21;98344.19;;;2.66;99.58
73429;BME280;61643;49.564;17.412;2022-11-15T05:32:47;98337.22;;;2.65;99.79
73429;BME280;61643;49.564;17.412;2022-11-15T05:35:19;98338.25;;;2.70;98.85
73429;BME280;61643;49.564;17.412;2022-11-15T05:37:45;98326.41;;;2.53;98.45
73429;BME280;61643;49.564;17.412;2022-11-15T05:40:10;98333.34;;;2.61;98.55
73429;BME280;61643;49.564;17.412;2022-11-15T05:42:36;98326.59;;;2.52;98.18
73429;BME280;61643;49.564;17.412;2022-11-15T05:45:02;98335.56;;;2.57;97.34
73429;BME280;61643;49.564;17.412;2022-11-15T05:47:30;98329.47;;;2.57;97.17
73429;BME280;61643;49.564;17.412;2022-11-15T05:49:56;98331.72;;;2.53;97.06
73429;BME280;61643;49.564;17.412;2022-11-15T05:52:25;98333.72;;;2.44;96.94
73429;BME280;61643;49.564;17.412;2022-11-15T05:54:54;98331.69;;;2.46;97.12
73429;BME280;61643;49.564;17.412;2022-11-15T05:57:20;98337.81;;;2.47;96.77
73429;BME280;61643;49.564;17.412;2022-11-15T05:59:46;98335.56;;;2.37;96.98
73429;BME280;61643;49.564;17.412;2022-11-15T06:02:11;98323.28;;;2.23;96.91
73429;BME280;61643;49.564;17.412;2022-11-15T06:04:37;98333.50;;;2.26;96.66
73429;BME280;61643;49.564;17.412;2022-11-15T06:07:02;98336.53;;;2.17;97.07
73429;BME280;61643;49.564;17.412;2022-11-15T06:09:28;98333.50;;;2.26;97.04
73429;BME280;61643;49.564;17.412;2022-11-15T06:11:53;98329.81;;;2.27;97.07
73429;BME280;61643;49.564;17.412;2022-11-15T06:14:18;98330.00;;;2.13;96.91
73429;BME280;61643;49.564;17.412;2022-11-15T06:16:44;98336.91;;;2.14;98.09
73429;BME280;61643;49.564;17.412;2022-11-15T06:19:09;98324.69;;;2.26;96.97
73429;BME280;61643;49.564;17.412;2022-11-15T06:21:35;98326.13;;;2.15;98.37
73429;BME280;61643;49.564;17.412;2022-11-15T06:24:00;98327.16;;;2.27;97.18
73429;BME280;61643;49.564;17.412;2022-11-15T06:26:26;98338.22;;;2.31;96.79
73429;BME280;61643;49.564;17.412;2022-11-15T06:28:51;98337.16;;;2.19;97.53
73429;BME280;61643;49.564;17.412;2022-11-15T06:31:17;98338.16;;;2.18;98.14
73429;BME280;61643;49.564;17.412;2022-11-15T06:33:42;98335.13;;;2.27;97.79
73429;BME280;61643;49.564;17.412;2022-11-15T06:36:10;98337.22;;;2.38;97.90
73429;BME280;61643;49.564;17.412;2022-11-15T06:38:36;98343.34;;;2.52;97.13
73429;BME280;61643;49.564;17.412;2022-11-15T06:41:03;98349.09;;;2.62;96.78
73429;BME280;61643;49.564;17.412;2022-11-15T06:43:29;98361.34;;;2.63;98.14
73429;BME280;61643;49.564;17.412;2022-11-15T06:45:54;98358.69;;;2.70;98.73
73429;BME280;61643;49.564;17.412;2022-11-15T06:48:20;98367.31;;;2.85;98.64
73429;BME280;61643;49.564;17.412;2022-11-15T06:50:52;98370.59;;;3.00;98.33
73429;BME280;61643;49.564;17.412;2022-11-15T06:53:17;98356.88;;;3.03;99.12
73429;BME280;61643;49.564;17.412;2022-11-15T06:55:43;98363.03;;;3.04;99.23
73429;BME280;61643;49.564;17.412;2022-11-15T06:58:08;98358.91;;;3.21;99.29
73429;BME280;61643;49.564;17.412;2022-11-15T07:00:33;98360.53;;;3.28;99.54
73429;BME280;61643;49.564;17.412;2022-11-15T07:03:00;98358.47;;;3.43;99.07
73429;BME280;61643;49.564;17.412;2022-11-15T07:05:26;98361.09;;;3.57;98.32
73429;BME280;61643;49.564;17.412;2022-11-15T07:07:56;98352.91;;;3.65;98.59
73429;BME280;61643;49.564;17.412;2022-11-15T07:10:23;98351.63;;;3.74;98.83
73429;BME280;61643;49.564;17.412;2022-11-15T07:12:53;98355.28;;;3.86;99.10
73429;BME280;61643;49.564;17.412;2022-11-15T07:15:21;98356.66;;;3.95;98.65
73429;BME280;61643;49.564;17.412;2022-11-15T07:17:46;98351.31;;;4.02;99.02
73429;BME280;61643;49.564;17.412;2022-11-15T07:20:13;98359.03;;;4.16;98.54
73429;BME280;61643;49.564;17.412;2022-11-15T07:22:40;98352.84;;;4.29;98.96
73429;BME280;61643;49.564;17.412;2022-11-15T07:25:07;98349.25;;;4.48;98.32
73429;BME280;61643;49.564;17.412;2022-11-15T07:27:32;98360.19;;;4.65;98.79
73429;BME280;61643;49.564;17.412;2022-11-15T07:29:58;98351.06;;;4.79;98.80
73429;BME280;61643;49.564;17.412;2022-11-15T07:32:23;98355.13;;;4.88;97.29
73429;BME280;61643;49.564;17.412;2022-11-15T07:34:49;98350.38;;;4.90;96.98
73429;BME280;61643;49.564;17.412;2022-11-15T07:37:14;98344.53;;;5.00;97.56
73429;BME280;61643;49.564;17.412;2022-11-15T07:39:39;98344.53;;;5.00;97.57
73429;BME280;61643;49.564;17.412;2022-11-15T07:42:05;98346.41;;;4.99;98.90
73429;BME280;61643;49.564;17.412;2022-11-15T07:44:56;98340.78;;;5.07;97.99
73429;BME280;61643;49.564;17.412;2022-11-15T07:47:21;98331.19;;;5.06;97.79
73429;BME280;61643;49.564;17.412;2022-11-15T07:49:47;98335.00;;;5.10;99.71
73429;BME280;61643;49.564;17.412;2022-11-15T07:52:13;98334.97;;;5.17;99.02
73429;BME280;61643;49.564;17.412;2022-11-15T07:54:38;98322.59;;;5.22;98.79
73429;BME280;61643;49.564;17.412;2022-11-15T07:57:04;98324.16;;;5.30;98.55
73429;BME280;61643;49.564;17.412;2022-11-15T07:59:30;98315.28;;;5.36;98.23
73429;BME280;61643;49.564;17.412;2022-11-15T08:01:56;98321.16;;;5.44;98.01
73429;BME280;61643;49.564;17.412;2022-11-15T08:04:21;98319.03;;;5.53;97.89
73429;BME280;61643;49.564;17.412;2022-11-15T08:06:47;98317.66;;;5.62;98.55
73429;BME280;61643;49.564;17.412;2022-11-15T08:09:12;98314.25;;;5.73;98.16
73429;BME280;61643;49.564;17.412;2022-11-15T08:11:37;98313.91;;;5.88;97.98
73429;BME280;61643;49.564;17.412;2022-11-15T08:14:03;98306.53;;;6.02;99.08
73429;BME280;61643;49.564;17.412;2022-11-15T08:16:28;98314.06;;;6.23;98.07
73429;BME280;61643;49.564;17.412;2022-11-15T08:18:54;98320.44;;;6.40;97.98
73429;BME280;61643;49.564;17.412;2022-11-15T08:21:20;98320.22;;;6.53;96.96
73429;BME280;61643;49.564;17.412;2022-11-15T08:23:46;98316.78;;;6.64;96.16
73429;BME280;61643;49.564;17.412;2022-11-15T08:26:11;98310.50;;;6.70;94.94
73429;BME280;61643;49.564;17.412;2022-11-15T08:28:37;98320.19;;;6.83;94.79
73429;BME280;61643;49.564;17.412;2022-11-15T08:31:03;98316.38;;;6.90;95.05
73429;BME280;61643;49.564;17.412;2022-11-15T08:33:29;98314.16;;;6.99;94.65
73429;BME280;61643;49.564;17.412;2022-11-15T08:35:59;98314.84;;;7.06;94.24
73429;BME280;61643;49.564;17.412;2022-11-15T08:38:26;98308.59;;;7.12;94.61
73429;BME280;61643;49.564;17.412;2022-11-15T08:41:00;98301.50;;;7.18;93.85
73429;BME280;61643;49.564;17.412;2022-11-15T08:43:26;98305.09;;;7.23;94.15
73429;BME280;61643;49.564;17.412;2022-11-15T08:45:51;98302.88;;;7.32;92.91
73429;BME280;61643;49.564;17.412;2022-11-15T08:48:17;98303.56;;;7.39;92.23
73429;BME280;61643;49.564;17.412;2022-11-15T08:50:42;98306.13;;;7.46;92.23
73429;BME280;61643;49.564;17.412;2022-11-15T08:53:09;98301.38;;;7.48;90.23
73429;BME280;61643;49.564;17.412;2022-11-15T08:55:38;98301.13;;;7.49;89.71
73429;BME280;61643;49.564;17.412;2022-11-15T08:58:04;98301.56;;;7.58;88.97
73429;BME280;61643;49.564;17.412;2022-11-15T09:00:29;98289.47;;;7.55;89.76
73429;BME280;61643;49.564;17.412;2022-11-15T09:02:54;98295.75;;;7.61;89.36
73429;BME280;61643;49.564;17.412;2022-11-15T09:05:20;98296.44;;;7.68;89.29
73429;BME280;61643;49.564;17.412;2022-11-15T09:07:45;98302.94;;;7.72;89.47
73429;BME280;61643;49.564;17.412;2022-11-15T09:10:11;98311.81;;;7.72;90.38
73429;BME280;61643;49.564;17.412;2022-11-15T09:12:36;98302.59;;;7.80;89.75
73429;BME280;61643;49.564;17.412;2022-11-15T09:15:02;98308.28;;;7.83;89.60
73429;BME280;61643;49.564;17.412;2022-11-15T09:17:28;98304.31;;;7.86;90.58
73429;BME280;61643;49.564;17.412;2022-11-15T09:19:53;98301.06;;;7.84;89.35
73429;BME280;61643;49.564;17.412;2022-11-15T09:22:19;98299.09;;;7.79;88.60
73429;BME280;61643;49.564;17.412;2022-11-15T09:24:44;98294.22;;;7.76;88.79
73429;BME280;61643;49.564;17.412;2022-11-15T09:27:09;98293.41;;;7.76;89.66
73429;BME280;61643;49.564;17.412;2022-11-15T09:29:35;98285.56;;;7.74;89.36
73429;BME280;61643;49.564;17.412;2022-11-15T09:32:00;98292.22;;;7.72;89.38
73429;BME280;61643;49.564;17.412;2022-11-15T09:34:25;98276.28;;;7.65;89.14
73429;BME280;61643;49.564;17.412;2022-11-15T09:36:51;98280.16;;;7.58;89.70
73429;BME280;61643;49.564;17.412;2022-11-15T09:39:16;98273.84;;;7.64;89.89
73429;BME280;61643;49.564;17.412;2022-11-15T09:49:35;98257.31;;;7.67;92.46
73429;BME280;61643;49.564;17.412;2022-11-15T09:52:00;98260.56;;;7.69;91.88
73429;BME280;61643;49.564;17.412;2022-11-15T09:54:38;98257.78;;;7.64;90.68
73429;BME280;61643;49.564;17.412;2022-11-15T09:57:09;98262.69;;;7.67;91.72
73429;BME280;61643;49.564;17.412;2022-11-15T10:02:54;98263.34;;;7.74;90.98
73429;BME280;61643;49.564;17.412;2022-11-15T10:05:23;98259.59;;;7.75;90.68
73429;BME280;61643;49.564;17.412;2022-11-15T10:07:54;98261.25;;;7.76;90.49
73429;BME280;61643;49.564;17.412;2022-11-15T10:12:48;98245.16;;;7.76;90.00
73429;BME280;61643;49.564;17.412;2022-11-15T10:15:16;98246.81;;;7.77;89.75
73429;BME280;61643;49.564;17.412;2022-11-15T10:20:39;98237.69;;;7.78;89.57
73429;BME280;61643;49.564;17.412;2022-11-15T10:23:11;98233.97;;;7.79;88.89
73429;BME280;61643;49.564;17.412;2022-11-15T10:25:38;98231.06;;;7.80;88.16
73429;BME280;61643;49.564;17.412;2022-11-15T10:30:39;98223.44;;;7.89;88.08
73429;BME280;61643;49.564;17.412;2022-11-15T10:35:42;98227.28;;;7.93;87.54
73429;BME280;61643;49.564;17.412;2022-11-15T10:38:11;98230.78;;;7.93;86.84
73429;BME280;61643;49.564;17.412;2022-11-15T10:40:39;98234.84;;;7.96;86.92
73429;BME280;61643;49.564;17.412;2022-11-15T10:43:12;98222.84;;;7.99;86.88
73429;BME280;61643;49.564;17.412;2022-11-15T10:45:38;98217.00;;;8.02;86.76
73429;BME280;61643;49.564;17.412;2022-11-15T10:50:46;98216.19;;;8.01;86.56
73429;BME280;61643;49.564;17.412;2022-11-15T10:53:25;98210.94;;;8.06;86.60
73429;BME280;61643;49.564;17.412;2022-11-15T10:55:54;98213.94;;;8.10;86.00
73429;BME280;61643;49.564;17.412;2022-11-15T10:58:38;98202.94;;;8.11;86.32
73429;BME280;61643;49.564;17.412;2022-11-15T11:01:16;98197.84;;;8.10;86.36
73429;BME280;61643;49.564;17.412;2022-11-15T11:03:43;98198.31;;;8.07;86.53
73429;BME280;61643;49.564;17.412;2022-11-15T11:06:15;98199.13;;;8.07;86.74
73429;BME280;61643;49.564;17.412;2022-11-15T11:08:53;98199.00;;;8.14;86.12
73429;BME280;61643;49.564;17.412;2022-11-15T11:11:19;98194.44;;;8.14;86.34
73429;BME280;61643;49.564;17.412;2022-11-15T11:13:44;98194.53;;;8.19;86.64
73429;BME280;61643;49.564;17.412;2022-11-15T11:16:34;98183.91;;;8.24;86.78
73429;BME280;61643;49.564;17.412;2022-11-15T11:19:32;98184.47;;;8.26;86.77
73429;BME280;61643;49.564;17.412;2022-11-15T11:30:54;98168.34;;;8.38;87.84
73429;BME280;61643;49.564;17.412;2022-11-15T11:41:38;98156.44;;;8.51;86.19
73429;BME280;61643;49.564;17.412;2022-11-15T11:44:12;98156.94;;;8.48;85.95
73429;BME280;61643;49.564;17.412;2022-11-15T11:46:47;98148.03;;;8.42;87.36
73429;BME280;61643;49.564;17.412;2022-11-15T11:49:23;98140.78;;;8.43;87.31
73429;BME280;61643;49.564;17.412;2022-11-15T11:52:04;98138.56;;;8.39;86.06
73429;BME280;61643;49.564;17.412;2022-11-15T12:00:21;98121.28;;;8.30;86.12
73429;BME280;61643;49.564;17.412;2022-11-15T12:02:49;98120.78;;;8.33;87.17
73429;BME280;61643;49.564;17.412;2022-11-15T12:11:17;98111.09;;;8.32;87.55
73429;BME280;61643;49.564;17.412;2022-11-15T12:13:43;98114.06;;;8.31;87.61
73429;BME280;61643;49.564;17.412;2022-11-15T12:16:19;98099.72;;;8.25;87.78
73429;BME280;61643;49.564;17.412;2022-11-15T12:18:53;98096.16;;;8.20;87.94
73429;BME280;61643;49.564;17.412;2022-11-15T12:24:19;98080.56;;;8.17;88.72
73429;BME280;61643;49.564;17.412;2022-11-15T12:27:01;98073.47;;;8.11;89.14
73429;BME280;61643;49.564;17.412;2022-11-15T12:29:37;98075.75;;;8.19;89.57
73429;BME280;61643;49.564;17.412;2022-11-15T12:32:05;98062.13;;;8.20;88.62
73429;BME280;61643;49.564;17.412;2022-11-15T12:34:44;98055.22;;;8.24;88.59
73429;BME280;61643;49.564;17.412;2022-11-15T12:40:27;98057.16;;;8.29;88.51
73429;BME280;61643;49.564;17.412;2022-11-15T12:43:04;98050.16;;;8.28;88.72
73429;BME280;61643;49.564;17.412;2022-11-15T12:45:38;98052.03;;;8.27;88.58
73429;BME280;61643;49.564;17.412;2022-11-15T12:50:55;98053.06;;;8.26;88.76
73429;BME280;61643;49.564;17.412;2022-11-15T12:58:42;98036.91;;;8.21;87.78
73429;BME280;61643;49.564;17.412;2022-11-15T13:01:08;98033.66;;;8.19;87.98
73429;BME280;61643;49.564;17.412;2022-11-15T13:03:34;98031.81;;;8.20;88.54
73429;BME280;61643;49.564;17.412;2022-11-15T13:06:03;98029.13;;;8.20;88.65
73429;BME280;61643;49.564;17.412;2022-11-15T13:08:37;98026.44;;;8.20;88.82
73429;BME280;61643;49.564;17.412;2022-11-15T13:14:38;98019.78;;;8.22;89.12
73429;BME280;61643;49.564;17.412;2022-11-15T13:22:58;98005.31;;;8.23;89.03
73429;BME280;61643;49.564;17.412;2022-11-15T13:33:56;97997.28;;;8.23;89.24
73429;BME280;61643;49.564;17.412;2022-11-15T13:36:28;97987.59;;;8.22;88.83
73429;BME280;61643;49.564;17.412;2022-11-15T13:39:23;97990.28;;;8.22;88.62
73429;BME280;61643;49.564;17.412;2022-11-15T13:41:51;97977.94;;;8.21;88.18
73429;BME280;61643;49.564;17.412;2022-11-15T13:44:29;97979.25;;;8.19;87.81
73429;BME280;61643;49.564;17.412;2022-11-15T13:49:32;97969.09;;;8.21;88.76
73429;BME280;61643;49.564;17.412;2022-11-15T13:51:59;97979.50;;;8.17;88.79
73429;BME280;61643;49.564;17.412;2022-11-15T13:54:30;97969.56;;;8.18;88.72
73429;BME280;61643;49.564;17.412;2022-11-15T13:57:05;97968.78;;;8.17;89.21
73429;BME280;61643;49.564;17.412;2022-11-15T13:59:36;97968.69;;;8.12;88.99
73429;BME280;61643;49.564;17.412;2022-11-15T14:02:12;97968.47;;;8.14;88.95
73429;BME280;61643;49.564;17.412;2022-11-15T14:04:48;97969.84;;;8.16;89.56
73429;BME280;61643;49.564;17.412;2022-11-15T14:07:17;97960.97;;;8.16;89.98
73429;BME280;61643;49.564;17.412;2022-11-15T14:09:44;97956.44;;;8.16;90.65
73429;BME280;61643;49.564;17.412;2022-11-15T14:12:28;97951.06;;;8.16;90.53
73429;BME280;61643;49.564;17.412;2022-11-15T14:14:54;97951.31;;;8.15;91.25
73429;BME280;61643;49.564;17.412;2022-11-15T14:19:54;97949.94;;;8.12;90.87
73429;BME280;61643;49.564;17.412;2022-11-15T14:22:28;97940.03;;;8.13;91.03
73429;BME280;61643;49.564;17.412;2022-11-15T14:25:23;97925.72;;;8.07;90.82
73429;BME280;61643;49.564;17.412;2022-11-15T14:28:16;97927.44;;;8.13;91.57
73429;BME280;61643;49.564;17.412;2022-11-15T14:30:43;97926.84;;;8.11;91.32
73429;BME280;61643;49.564;17.412;2022-11-15T14:33:35;97923.38;;;8.11;91.08
73429;BME280;61643;49.564;17.412;2022-11-15T14:36:16;97922.31;;;8.12;91.58
73429;BME280;61643;49.564;17.412;2022-11-15T14:38:42;97913.88;;;8.03;91.95
73429;BME280;61643;49.564;17.412;2022-11-15T14:41:26;97919.75;;;8.00;91.43
73429;BME280;61643;49.564;17.412;2022-11-15T14:43:52;97911.84;;;8.10;91.58
73429;BME280;61643;49.564;17.412;2022-11-15T14:46:18;97909.34;;;8.04;91.39
73429;BME280;61643;49.564;17.412;2022-11-15T14:48:43;97906.22;;;8.12;91.24
73429;BME280;61643;49.564;17.412;2022-11-15T14:51:12;97897.94;;;8.13;90.76
73429;BME280;61643;49.564;17.412;2022-11-15T14:53:38;97888.28;;;8.12;90.61
73429;BME280;61643;49.564;17.412;2022-11-15T14:56:03;97896.31;;;8.12;91.03
73429;BME280;61643;49.564;17.412;2022-11-15T14:58:28;97888.72;;;8.04;91.84
73429;BME280;61643;49.564;17.412;2022-11-15T15:00:54;97899.50;;;8.09;92.48
73429;BME280;61643;49.564;17.412;2022-11-15T15:03:19;97893.34;;;8.09;91.83
73429;BME280;61643;49.564;17.412;2022-11-15T15:05:44;97896.00;;;8.09;91.76
73429;BME280;61643;49.564;17.412;2022-11-15T15:08:10;97898.13;;;8.07;92.08
73429;BME280;61643;49.564;17.412;2022-11-15T15:10:38;97905.09;;;8.08;91.37
73429;BME280;61643;49.564;17.412;2022-11-15T15:13:05;97909.66;;;8.07;91.14